Time;durP1;ratioP1;P1;durP2;ratioP2;P2;SDS_P1;SDS_P2;PMS_P1;PMS_P2;Temp;Humidity;BMP_temperature;BMP_pressure;BME280_temperature;BME280_humidity;BME280_pressure;Samples;Min_cycle;Max_cycle;Signal;HPM_P1;HPM_P2
2022/08/09 00:00:04;;;;;;;1.47;0.90;;;19.40;87.60;;;;;;4988722;28;20469;-81
2022/08/09 00:02:32;;;;;;;1.47;0.90;;;19.40;87.40;;;;;;4983106;28;20857;-80
2022/08/09 00:04:59;;;;;;;1.47;1.00;;;19.40;88.10;;;;;;4996276;28;20472;-82
2022/08/09 00:07:26;;;;;;;1.43;0.90;;;19.30;88.20;;;;;;4990035;28;20513;-82
2022/08/09 00:09:54;;;;;;;1.43;0.90;;;19.30;88.30;;;;;;4991572;28;20469;-82
2022/08/09 00:12:22;;;;;;;1.47;0.90;;;19.30;88.70;;;;;;4976206;28;20484;-82
2022/08/09 00:14:48;;;;;;;1.47;0.90;;;19.20;88.40;;;;;;4990553;28;20500;-81
2022/08/09 00:17:15;;;;;;;1.50;1.00;;;19.20;88.80;;;;;;4986208;28;20484;-81
2022/08/09 00:19:42;;;;;;;1.47;0.90;;;19.20;89.00;;;;;;4996870;28;20966;-81
2022/08/09 00:22:09;;;;;;;1.50;0.90;;;19.20;88.90;;;;;;4973644;28;20496;-82
2022/08/09 00:24:36;;;;;;;1.47;1.00;;;19.20;88.90;;;;;;4992510;28;20599;-82
2022/08/09 00:27:05;;;;;;;1.60;1.20;;;19.20;89.10;;;;;;4981485;28;21013;-82
2022/08/09 00:29:32;;;;;;;1.50;0.90;;;19.10;89.10;;;;;;4995691;28;20901;-81
2022/08/09 00:31:59;;;;;;;1.40;0.90;;;19.10;89.00;;;;;;4984239;28;20504;-81
2022/08/09 00:34:26;;;;;;;1.50;0.90;;;19.10;89.40;;;;;;4996966;28;20466;-82
2022/08/09 00:36:53;;;;;;;1.43;0.90;;;19.10;89.50;;;;;;4984016;28;20859;-81
2022/08/09 00:39:21;;;;;;;1.47;0.90;;;19.10;89.50;;;;;;4996791;28;20500;-82
2022/08/09 00:41:49;;;;;;;1.50;0.90;;;19.10;89.60;;;;;;4984963;28;20540;-82
2022/08/09 00:44:17;;;;;;;1.40;0.90;;;19.10;89.70;;;;;;4996292;28;20941;-81
2022/08/09 00:46:44;;;;;;;1.40;0.90;;;19.00;90.00;;;;;;4986019;28;20509;-81
2022/08/09 00:49:11;;;;;;;1.40;0.90;;;19.00;89.90;;;;;;4995212;28;20465;-82
2022/08/09 00:51:39;;;;;;;1.50;1.00;;;19.00;89.60;;;;;;4988997;28;20583;-82
2022/08/09 00:54:06;;;;;;;1.47;0.90;;;19.00;90.00;;;;;;5002377;28;20464;-82
2022/08/09 00:56:33;;;;;;;1.40;0.90;;;19.00;89.90;;;;;;4996321;28;20521;-81
2022/08/09 00:59:00;;;;;;;1.43;0.90;;;19.00;90.00;;;;;;4999561;28;20500;-81
2022/08/09 01:01:35;;;;;;;1.40;0.90;;;19.00;89.80;;;;;;4986198;28;20469;-81
2022/08/09 01:04:08;;;;;;;1.43;0.90;;;19.00;90.60;;;;;;4995250;28;20491;-82
2022/08/09 01:06:42;;;;;;;1.50;1.00;;;19.00;90.20;;;;;;4985496;28;20504;-82
2022/08/09 01:09:18;;;;;;;1.43;0.90;;;18.90;90.70;;;;;;4990283;28;20464;-82
2022/08/09 01:11:54;;;;;;;1.40;0.90;;;18.90;90.70;;;;;;4985701;28;20520;-81
2022/08/09 01:14:28;;;;;;;1.47;0.90;;;18.90;90.70;;;;;;4993145;28;20511;-81
2022/08/09 01:17:07;;;;;;;1.43;0.97;;;18.90;90.80;;;;;;4993282;28;20535;-82
2022/08/09 01:19:49;;;;;;;1.40;0.90;;;18.90;90.70;;;;;;4998178;28;20499;-81
2022/08/09 01:23:14;;;;;;;1.50;0.90;;;18.90;91.20;;;;;;4971092;28;20543;-82
2022/08/09 01:25:54;;;;;;;1.43;0.90;;;18.90;90.90;;;;;;4918471;29;21025;-80
2022/08/09 01:28:24;;;;;;;1.47;0.90;;;18.90;90.90;;;;;;4922441;29;20540;-82
2022/08/09 01:30:53;;;;;;;1.47;0.90;;;18.90;91.40;;;;;;4958294;28;20449;-82
2022/08/09 01:33:24;;;;;;;1.40;0.97;;;18.80;91.10;;;;;;4997488;28;20531;-80
2022/08/09 01:35:57;;;;;;;1.40;0.90;;;18.80;91.30;;;;;;4991188;28;20473;-83
2022/08/09 01:38:28;;;;;;;1.50;1.00;;;18.80;91.60;;;;;;4998390;28;20473;-81
2022/08/09 01:41:01;;;;;;;1.50;1.00;;;18.80;91.40;;;;;;4989139;28;20465;-80
2022/08/09 01:43:31;;;;;;;1.40;0.90;;;18.80;91.70;;;;;;4993087;28;20528;-78
2022/08/09 01:45:59;;;;;;;1.43;0.90;;;18.80;91.70;;;;;;4985890;28;20473;-80
2022/08/09 01:48:29;;;;;;;1.47;1.00;;;18.80;91.60;;;;;;4987017;28;20552;-79
2022/08/09 01:50:58;;;;;;;1.43;0.90;;;18.80;91.80;;;;;;4986203;28;20469;-78
2022/08/09 01:53:26;;;;;;;1.47;0.90;;;18.80;91.70;;;;;;4993167;28;20512;-81
2022/08/09 01:55:55;;;;;;;1.50;0.90;;;18.70;91.90;;;;;;4987439;28;20460;-81
2022/08/09 01:58:23;;;;;;;1.50;1.00;;;18.70;91.90;;;;;;5007729;28;20552;-83
2022/08/09 02:00:55;;;;;;;1.50;0.90;;;18.70;92.10;;;;;;4988566;28;20469;-81
2022/08/09 02:03:23;;;;;;;1.43;0.90;;;18.70;92.10;;;;;;4995036;28;20468;-84
2022/08/09 02:05:54;;;;;;;1.40;0.93;;;18.60;92.40;;;;;;4981044;28;20457;-81
2022/08/09 02:08:24;;;;;;;1.40;0.90;;;18.60;92.20;;;;;;4984112;28;20487;-81
2022/08/09 02:10:55;;;;;;;1.47;0.97;;;18.60;92.80;;;;;;4987329;28;20471;-79
2022/08/09 02:13:24;;;;;;;1.47;1.00;;;18.60;92.70;;;;;;4995406;28;20493;-82
2022/08/09 02:15:56;;;;;;;1.47;0.90;;;18.50;92.70;;;;;;4987181;28;20479;-82
2022/08/09 02:18:26;;;;;;;1.50;0.90;;;18.50;92.30;;;;;;4991356;28;20832;-83
2022/08/09 02:20:58;;;;;;;1.47;1.00;;;18.50;92.70;;;;;;4984051;28;21976;-82
2022/08/09 02:23:30;;;;;;;1.43;1.00;;;18.50;92.60;;;;;;4989605;28;20540;-82
2022/08/09 02:26:00;;;;;;;1.43;1.00;;;18.50;92.80;;;;;;4986123;28;20525;-82
2022/08/09 02:28:33;;;;;;;1.50;1.00;;;18.40;93.00;;;;;;4992879;28;20958;-83
2022/08/09 02:31:06;;;;;;;1.50;0.90;;;18.40;93.30;;;;;;4985668;28;20473;-80
2022/08/09 02:33:37;;;;;;;1.50;1.00;;;18.30;93.60;;;;;;4994353;28;20492;-83
2022/08/09 02:36:08;;;;;;;1.50;0.90;;;18.30;92.80;;;;;;4986075;28;20556;-79
2022/08/09 02:38:40;;;;;;;1.50;0.90;;;18.30;93.20;;;;;;4987739;28;20465;-82
2022/08/09 02:41:10;;;;;;;1.50;0.90;;;18.30;94.00;;;;;;4983736;28;20488;-82
2022/08/09 02:43:40;;;;;;;1.47;0.90;;;18.20;94.20;;;;;;4996768;28;20488;-81
2022/08/09 02:46:12;;;;;;;1.40;0.90;;;18.20;94.00;;;;;;4979474;28;20481;-82
2022/08/09 02:48:41;;;;;;;1.70;1.60;;;18.10;94.60;;;;;;4990974;28;20465;-83
2022/08/09 02:51:12;;;;;;;1.50;0.90;;;18.10;95.10;;;;;;4988518;28;20880;-82
2022/08/09 02:53:45;;;;;;;1.47;0.93;;;18.10;95.30;;;;;;5015097;28;20556;-81
2022/08/09 02:56:14;;;;;;;1.50;0.90;;;18.10;95.10;;;;;;5005318;28;20488;-83
2022/08/09 02:58:43;;;;;;;1.40;0.90;;;18.10;95.50;;;;;;5005255;28;20469;-81
2022/08/09 03:01:13;;;;;;;1.43;0.93;;;18.10;95.60;;;;;;4994039;28;20568;-82
2022/08/09 03:03:41;;;;;;;1.47;0.90;;;18.10;95.60;;;;;;4999563;28;20544;-83
2022/08/09 03:06:13;;;;;;;1.40;0.93;;;18.10;95.50;;;;;;4994225;28;20533;-82
2022/08/09 03:08:43;;;;;;;1.50;0.90;;;18.10;95.30;;;;;;5000925;28;20469;-81
2022/08/09 03:11:17;;;;;;;1.50;0.90;;;18.10;95.80;;;;;;4989170;28;20481;-80
2022/08/09 03:13:46;;;;;;;1.47;1.00;;;18.00;95.90;;;;;;4999069;28;20514;-79
2022/08/09 03:16:18;;;;;;;1.50;0.90;;;18.00;95.80;;;;;;4989817;28;20493;-83
2022/08/09 03:18:47;;;;;;;1.43;1.00;;;18.00;96.30;;;;;;4996655;28;20539;-82
2022/08/09 03:21:16;;;;;;;1.50;0.90;;;18.00;96.20;;;;;;4988060;28;20478;-80
2022/08/09 03:23:45;;;;;;;1.50;0.90;;;18.00;96.20;;;;;;4987194;28;20962;-80
2022/08/09 03:26:14;;;;;;;1.47;0.90;;;18.00;96.20;;;;;;4987415;28;20497;-81
2022/08/09 03:28:46;;;;;;;1.50;0.90;;;18.00;96.50;;;;;;4993262;28;20524;-80
2022/08/09 03:31:15;;;;;;;1.47;0.90;;;18.00;96.50;;;;;;4990138;28;20931;-82
2022/08/09 03:33:44;;;;;;;1.50;0.90;;;17.90;96.10;;;;;;4996987;28;20489;-82
2022/08/09 03:36:11;;;;;;;1.50;0.90;;;17.90;96.00;;;;;;4988017;28;20610;-82
2022/08/09 03:38:43;;;;;;;1.40;0.90;;;17.90;96.30;;;;;;4994762;28;20464;-82
2022/08/09 03:41:18;;;;;;;1.43;0.90;;;17.90;96.00;;;;;;4976496;28;20511;-79
2022/08/09 03:43:48;;;;;;;1.50;1.10;;;17.90;96.20;;;;;;4994113;28;20461;-80
2022/08/09 03:46:15;;;;;;;1.43;0.90;;;17.90;96.60;;;;;;4986958;28;20583;-82
2022/08/09 03:48:45;;;;;;;1.47;0.90;;;17.90;96.20;;;;;;4995942;28;20460;-82
2022/08/09 03:51:13;;;;;;;1.47;0.90;;;17.90;96.60;;;;;;4984216;28;20469;-81
2022/08/09 03:53:43;;;;;;;1.47;0.90;;;17.90;96.90;;;;;;5008276;28;20485;-83
2022/08/09 03:56:10;;;;;;;1.40;0.90;;;17.80;96.70;;;;;;4988547;28;20493;-81
2022/08/09 03:58:40;;;;;;;1.50;0.90;;;17.80;96.20;;;;;;5000980;28;20469;-82
2022/08/09 04:01:08;;;;;;;1.47;0.90;;;17.80;96.00;;;;;;4992013;28;20492;-83
2022/08/09 04:03:37;;;;;;;1.43;0.90;;;17.80;96.20;;;;;;5000502;28;20479;-80
2022/08/09 04:06:06;;;;;;;1.47;0.90;;;17.80;96.20;;;;;;4995517;28;20457;-83
2022/08/09 04:08:33;;;;;;;1.47;1.00;;;17.80;96.30;;;;;;5014138;28;20453;-83
2022/08/09 04:11:01;;;;;;;1.50;0.90;;;17.80;96.50;;;;;;4992896;28;20457;-83
2022/08/09 04:13:36;;;;;;;1.43;0.90;;;17.80;96.30;;;;;;5002143;28;20555;-82
2022/08/09 04:16:03;;;;;;;1.43;0.90;;;17.80;96.60;;;;;;5002338;28;20531;-82
2022/08/09 04:18:30;;;;;;;1.50;0.90;;;17.70;96.70;;;;;;5000831;28;20492;-81
2022/08/09 04:20:57;;;;;;;1.50;0.90;;;17.70;96.10;;;;;;4988452;28;20937;-82
2022/08/09 04:23:26;;;;;;;1.47;1.00;;;17.70;96.20;;;;;;4998857;28;20946;-82
2022/08/09 04:25:56;;;;;;;1.40;0.90;;;17.60;96.90;;;;;;4988016;28;20461;-80
2022/08/09 04:28:25;;;;;;;1.50;0.90;;;17.60;96.40;;;;;;4989902;28;20466;-80
2022/08/09 04:30:52;;;;;;;1.47;0.90;;;17.60;96.90;;;;;;4991632;28;20519;-80
2022/08/09 04:33:19;;;;;;;1.50;1.10;;;17.60;96.70;;;;;;4995535;28;20517;-81
2022/08/09 04:35:48;;;;;;;1.43;0.90;;;17.60;97.10;;;;;;5001511;28;20538;-81
2022/08/09 04:38:15;;;;;;;1.43;0.90;;;17.50;97.00;;;;;;5010416;28;20473;-81
2022/08/09 04:40:50;;;;;;;1.50;0.90;;;17.50;97.00;;;;;;5023869;28;20461;-80
2022/08/09 04:43:24;;;;;;;1.47;0.90;;;17.50;97.20;;;;;;5009510;28;21095;-81
2022/08/09 04:45:51;;;;;;;1.40;0.90;;;17.50;97.20;;;;;;5009189;28;20463;-80
2022/08/09 04:48:19;;;;;;;1.50;0.90;;;17.50;97.70;;;;;;5016392;28;20480;-79
2022/08/09 04:50:46;;;;;;;1.50;0.90;;;17.50;97.40;;;;;;5008979;28;20460;-80
2022/08/09 04:53:13;;;;;;;1.50;1.00;;;17.50;97.60;;;;;;4997861;28;20475;-80
2022/08/09 04:55:40;;;;;;;1.50;0.90;;;17.50;97.90;;;;;;5015008;28;20499;-79
2022/08/09 04:58:09;;;;;;;1.43;0.90;;;17.50;98.20;;;;;;5011710;28;20500;-79
2022/08/09 05:00:36;;;;;;;1.43;1.00;;;17.50;98.10;;;;;;5007762;28;20957;-79
2022/08/09 05:03:08;;;;;;;1.50;0.90;;;17.50;98.10;;;;;;5019984;28;20561;-80
2022/08/09 05:05:38;;;;;;;1.47;1.00;;;17.50;98.00;;;;;;5015451;28;20547;-80
2022/08/09 05:08:05;;;;;;;1.47;0.90;;;17.60;98.10;;;;;;5021031;28;20483;-81
2022/08/09 05:10:33;;;;;;;1.47;0.90;;;17.60;98.20;;;;;;5012406;28;20465;-81
2022/08/09 05:13:10;;;;;;;1.47;0.97;;;17.60;97.70;;;;;;5025206;28;20487;-80
2022/08/09 05:15:38;;;;;;;1.43;0.93;;;17.70;97.60;;;;;;5018418;28;20549;-80
2022/08/09 05:20:58;;;;;;;1.50;0.90;;;17.80;98.00;;;;;;5006149;28;20958;-81
2022/08/09 05:23:27;;;;;;;1.50;1.00;;;18.00;98.10;;;;;;5029695;28;20457;-81
2022/08/09 05:25:54;;;;;;;1.50;1.00;;;18.10;98.00;;;;;;5002798;28;20475;-80
2022/08/09 05:28:27;;;;;;;1.50;0.90;;;18.30;97.20;;;;;;5007133;28;20740;-82
2022/08/09 05:30:57;;;;;;;1.40;0.90;;;18.50;96.60;;;;;;5003929;28;20468;-81
2022/08/09 05:33:26;;;;;;;1.47;0.90;;;18.70;96.10;;;;;;5017241;28;20587;-81
2022/08/09 05:35:57;;;;;;;1.50;0.90;;;18.80;95.70;;;;;;5015070;28;20488;-80
2022/08/09 05:38:26;;;;;;;1.50;0.90;;;19.00;95.10;;;;;;5012222;28;20851;-79
2022/08/09 05:41:22;;;;;;;1.40;0.90;;;19.10;95.00;;;;;;5010736;28;20465;-81
2022/08/09 05:43:51;;;;;;;1.40;0.90;;;19.30;94.90;;;;;;5016041;28;20616;-81
2022/08/09 05:46:18;;;;;;;1.43;0.90;;;19.50;94.60;;;;;;5006836;28;20492;-80
2022/08/09 05:48:45;;;;;;;1.50;0.97;;;19.70;93.40;;;;;;5007961;28;20495;-80
2022/08/09 05:51:13;;;;;;;1.50;0.90;;;19.80;93.20;;;;;;5007008;28;20467;-82
2022/08/09 05:53:43;;;;;;;1.47;0.90;;;19.90;92.40;;;;;;5022530;28;20476;-80
2022/08/09 05:56:10;;;;;;;1.47;0.90;;;20.00;92.50;;;;;;5006741;28;20534;-81
2022/08/09 05:58:40;;;;;;;1.40;0.90;;;20.10;92.00;;;;;;5014308;28;20515;-81
2022/08/09 06:01:14;;;;;;;1.40;0.90;;;20.20;91.70;;;;;;5008531;28;20472;-81
2022/08/09 06:03:45;;;;;;;1.47;0.80;;;20.40;91.20;;;;;;5017919;28;20456;-81
2022/08/09 06:06:16;;;;;;;1.50;0.90;;;20.50;90.80;;;;;;5014772;28;20572;-83
2022/08/09 06:08:45;;;;;;;1.50;0.90;;;20.70;91.00;;;;;;5001047;28;20465;-83
2022/08/09 06:11:13;;;;;;;1.80;1.40;;;20.90;90.10;;;;;;5003346;28;20540;-81
2022/08/09 06:13:41;;;;;;;1.47;0.90;;;21.10;89.40;;;;;;5026039;28;20721;-80
2022/08/09 06:16:13;;;;;;;1.43;0.90;;;21.30;88.70;;;;;;5002407;28;20515;-79
2022/08/09 06:18:47;;;;;;;1.50;0.90;;;21.40;88.10;;;;;;5005629;28;20468;-81
2022/08/09 06:21:19;;;;;;;1.47;0.90;;;21.40;88.30;;;;;;5002814;28;20510;-81
2022/08/09 06:23:47;;;;;;;1.47;0.90;;;21.60;87.70;;;;;;5019057;28;20460;-81
2022/08/09 06:28:45;;;;;;;1.50;1.00;;;21.80;86.80;;;;;;4998377;28;20476;-77
2022/08/09 06:31:38;;;;;;;1.43;0.90;;;22.00;86.10;;;;;;4989302;28;20528;-80
2022/08/09 06:34:15;;;;;;;1.47;0.90;;;22.00;86.20;;;;;;4998326;28;20483;-79
2022/08/09 07:36:22;;;;;;;1.50;0.90;;;25.20;75.30;;;;;;5067405;22;20482;-81
2022/08/09 07:38:56;;;;;;;1.47;0.90;;;25.20;76.00;;;;;;5038426;28;20466;-84
2022/08/09 07:41:43;;;;;;;1.50;0.90;;;25.40;75.10;;;;;;5023910;28;20479;-83
2022/08/09 07:47:05;;;;;;;1.50;0.90;;;25.70;75.10;;;;;;5035948;28;20549;-85
2022/08/09 07:49:57;;;;;;;1.50;0.80;;;25.70;73.80;;;;;;5031560;28;20463;-85
2022/08/09 07:52:41;;;;;;;1.47;0.90;;;25.60;73.40;;;;;;5027676;28;20471;-83
2022/08/09 07:55:26;;;;;;;1.50;0.90;;;25.80;74.60;;;;;;4997013;28;20503;-86
2022/08/09 07:58:02;;;;;;;1.50;1.00;;;26.10;73.60;;;;;;4993149;28;20565;-83
2022/08/09 08:00:42;;;;;;;1.50;0.90;;;26.30;73.60;;;;;;5029755;28;20503;-84
2022/08/09 08:03:34;;;;;;;1.47;0.90;;;26.40;72.80;;;;;;5004896;28;20498;-84
2022/08/09 08:06:12;;;;;;;1.50;0.83;;;26.70;73.10;;;;;;5023534;28;20975;-84
2022/08/09 08:11:52;;;;;;;1.50;0.90;;;26.90;70.60;;;;;;5024691;28;20502;-84
2022/08/09 08:14:23;;;;;;;1.50;0.83;;;27.00;71.40;;;;;;5040225;28;20475;-86
2022/08/09 08:21:24;;;;;;;1.47;0.83;;;27.10;70.20;;;;;;4938476;28;20900;-84
2022/08/09 08:24:00;;;;;;;1.47;0.80;;;27.20;70.80;;;;;;4775058;29;20498;-85
2022/08/09 08:36:28;;;;;;;1.50;0.80;;;27.70;69.20;;;;;;4844422;29;20842;-84
2022/08/09 08:56:27;;;;;;;1.40;0.87;;;27.90;67.40;;;;;;5052381;27;21191;-91
2022/08/09 08:59:14;;;;;;;1.43;0.80;;;28.40;67.40;;;;;;5015096;28;20488;-90
2022/08/09 09:01:53;;;;;;;1.43;0.80;;;28.40;66.20;;;;;;4991665;28;20480;-89
2022/08/09 09:04:25;;;;;;;1.43;0.80;;;28.60;66.40;;;;;;5013132;28;20495;-94
2022/08/09 09:06:59;;;;;;;1.47;0.80;;;28.70;66.00;;;;;;5003446;28;20494;-91
2022/08/09 09:09:29;;;;;;;1.43;0.80;;;28.80;65.70;;;;;;5004767;28;20468;-92
2022/08/09 09:12:03;;;;;;;1.47;0.80;;;28.80;65.20;;;;;;5004845;28;20488;-90
2022/08/09 09:14:33;;;;;;;1.40;0.80;;;28.80;66.10;;;;;;5013993;28;20474;-91
2022/08/09 09:17:01;;;;;;;1.40;0.80;;;28.80;66.10;;;;;;4999762;28;20518;-89
2022/08/09 09:19:39;;;;;;;1.43;0.80;;;28.90;65.80;;;;;;5010822;28;20464;-92
2022/08/09 09:22:12;;;;;;;1.50;1.20;;;29.10;65.10;;;;;;5012661;28;21010;-92
2022/08/09 09:24:46;;;;;;;1.43;0.80;;;29.20;65.10;;;;;;5025470;28;20534;-91
2022/08/09 09:27:19;;;;;;;1.43;0.80;;;29.20;63.70;;;;;;5006961;28;20677;-90
2022/08/09 09:29:48;;;;;;;1.40;0.90;;;29.20;65.00;;;;;;5001277;28;20464;-91
2022/08/09 09:32:25;;;;;;;1.40;0.80;;;29.30;64.80;;;;;;5013141;28;20475;-90
2022/08/09 09:35:05;;;;;;;1.43;0.90;;;29.20;64.10;;;;;;5022475;28;20459;-90
2022/08/09 09:40:44;;;;;;;1.47;0.80;;;29.30;64.40;;;;;;5005361;28;20456;-92
2022/08/09 09:43:19;;;;;;;1.43;0.80;;;29.50;64.30;;;;;;5002986;28;21162;-92
2022/08/09 09:46:01;;;;;;;1.50;0.80;;;29.70;64.50;;;;;;5014939;28;20505;-90
2022/08/09 09:48:32;;;;;;;1.43;0.80;;;29.90;63.90;;;;;;5024058;28;20467;-89
2022/08/09 09:51:20;;;;;;;1.50;0.90;;;30.00;62.60;;;;;;5017726;28;20464;-89
2022/08/09 09:54:13;;;;;;;1.47;0.80;;;30.10;62.90;;;;;;4993940;28;20534;-91
2022/08/09 09:56:50;;;;;;;1.43;0.80;;;30.10;63.10;;;;;;4977681;28;20808;-90
2022/08/09 09:59:44;;;;;;;1.67;1.10;;;30.10;62.60;;;;;;4979044;28;20465;-89
2022/08/09 10:02:17;;;;;;;1.43;0.80;;;30.30;62.50;;;;;;4999088;28;20529;-91
2022/08/09 10:05:04;;;;;;;1.43;0.80;;;30.30;62.00;;;;;;5004797;28;20515;-92
2022/08/09 10:10:51;;;;;;;1.43;0.80;;;30.50;62.30;;;;;;4932204;29;20488;-89
2022/08/09 10:13:55;;;;;;;1.50;0.90;;;30.50;62.00;;;;;;4979414;28;20472;-90
2022/08/09 10:17:09;;;;;;;1.43;0.80;;;30.60;61.80;;;;;;4993626;28;20489;-91
2022/08/09 10:20:00;;;;;;;1.43;0.80;;;30.60;61.00;;;;;;5010255;28;20797;-91
2022/08/09 10:22:33;;;;;;;1.40;0.80;;;30.70;61.40;;;;;;4991813;28;21279;-91
2022/08/09 10:25:06;;;;;;;1.50;0.80;;;30.90;62.20;;;;;;5005859;28;20548;-92
2022/08/09 10:31:00;;;;;;;1.40;0.83;;;31.10;60.20;;;;;;4877862;29;20508;-90
2022/08/09 10:33:39;;;;;;;1.47;0.90;;;31.20;60.70;;;;;;4987697;28;20468;-91
2022/08/09 10:36:11;;;;;;;1.43;0.80;;;31.30;60.90;;;;;;4983729;28;20492;-92
2022/08/09 10:39:01;;;;;;;1.60;1.07;;;31.40;60.30;;;;;;5011226;28;20468;-90
2022/08/09 10:41:33;;;;;;;1.47;0.80;;;31.40;59.60;;;;;;4974536;28;20522;-92
2022/08/09 10:44:29;;;;;;;1.40;0.80;;;31.40;60.50;;;;;;5003731;28;20467;-89
2022/08/09 10:47:36;;;;;;;5.33;1.50;;;31.30;59.80;;;;;;4994500;28;20487;-93
2022/08/09 10:50:24;;;;;;;1.40;0.80;;;31.40;59.00;;;;;;4991400;28;21063;-91
2022/08/09 10:53:18;;;;;;;3.20;1.43;;;31.50;59.70;;;;;;5010610;28;20481;-89
2022/08/09 10:56:12;;;;;;;1.43;0.80;;;31.80;59.70;;;;;;5011158;28;20476;-91
2022/08/09 10:58:42;;;;;;;1.43;0.80;;;31.90;59.10;;;;;;4996281;28;20479;-91
2022/08/09 11:01:39;;;;;;;1.47;0.80;;;32.00;58.40;;;;;;4999360;28;20503;-90
2022/08/09 11:05:14;;;;;;;1.43;0.80;;;32.10;58.20;;;;;;5002730;28;20453;-90
2022/08/09 11:07:54;;;;;;;1.40;0.80;;;32.40;58.30;;;;;;4903561;28;20216;-90
2022/08/09 11:11:08;;;;;;;1.47;0.80;;;32.50;57.20;;;;;;4971198;28;20469;-90
2022/08/09 11:13:37;;;;;;;1.40;0.80;;;32.40;57.70;;;;;;4934021;28;20229;-90
2022/08/09 11:16:36;;;;;;;1.43;0.80;;;32.30;58.60;;;;;;4969067;28;20545;-93
2022/08/09 11:22:55;;;;;;;1.40;0.80;;;32.40;58.60;;;;;;4868784;29;20540;-93
2022/08/09 11:28:43;;;;;;;1.40;0.80;;;32.50;56.90;;;;;;4863423;29;20256;-91
2022/08/09 11:32:14;;;;;;;1.40;0.80;;;32.30;56.50;;;;;;4952611;28;20266;-91
2022/08/09 11:41:57;;;;;;;1.40;0.80;;;32.40;58.50;;;;;;4895999;29;20243;-89
2022/08/09 11:48:07;;;;;;;1.40;0.80;;;32.60;57.50;;;;;;4852717;29;20233;-89
2022/08/09 11:51:17;;;;;;;1.40;0.80;;;32.70;58.00;;;;;;4995238;28;20225;-90
2022/08/09 11:54:29;;;;;;;1.40;0.80;;;32.80;57.30;;;;;;4918163;29;20224;-90
2022/08/09 12:03:34;;;;;;;1.50;1.10;;;32.90;57.00;;;;;;4867076;29;20244;-88
2022/08/09 12:09:25;;;;;;;1.40;0.80;;;32.80;57.30;;;;;;4978538;28;20198;-90
2022/08/09 12:12:14;;;;;;;1.40;0.80;;;33.00;57.30;;;;;;4986915;28;20286;-89
2022/08/09 12:15:23;;;;;;;1.40;0.80;;;33.30;56.80;;;;;;5012194;28;20248;-89
2022/08/09 12:17:55;;;;;;;1.40;0.80;;;33.30;55.40;;;;;;4985548;28;20273;-90
2022/08/09 12:20:35;;;;;;;1.40;0.80;;;33.30;55.60;;;;;;4992168;28;20717;-90
2022/08/09 12:23:08;;;;;;;1.40;0.80;;;33.30;54.60;;;;;;5011502;28;20271;-89
2022/08/09 12:25:38;;;;;;;1.40;0.80;;;33.30;55.10;;;;;;4983189;28;20297;-89
2022/08/09 12:31:55;;;;;;;1.40;0.80;;;33.20;55.80;;;;;;4931676;28;20218;-91
2022/08/09 12:34:36;;;;;;;1.70;1.53;;;32.90;55.20;;;;;;4955519;29;20191;-88
2022/08/09 12:40:22;;;;;;;1.40;0.80;;;33.30;55.90;;;;;;4982406;28;20198;-90
2022/08/09 12:43:07;;;;;;;1.40;0.80;;;33.30;55.90;;;;;;4987968;28;20248;-88
2022/08/09 12:45:40;;;;;;;1.40;0.80;;;33.30;55.90;;;;;;4959909;28;20226;-88
2022/08/09 12:48:17;;;;;;;1.40;0.80;;;33.40;55.30;;;;;;4975864;28;20351;-90
2022/08/09 12:51:18;;;;;;;1.40;0.80;;;33.30;55.80;;;;;;4977684;28;20209;-90
2022/08/09 12:54:13;;;;;;;1.40;0.80;;;33.40;54.90;;;;;;4969882;28;20244;-90
2022/08/09 12:56:50;;;;;;;1.50;0.90;;;33.40;55.50;;;;;;4971703;28;20295;-92
2022/08/09 12:59:18;;;;;;;1.50;0.90;;;33.40;54.70;;;;;;4983392;28;20636;-89
2022/08/09 13:02:05;;;;;;;1.40;0.80;;;33.30;54.80;;;;;;4964216;28;20238;-90
2022/08/09 13:04:38;;;;;;;1.50;1.10;;;33.30;54.80;;;;;;4967870;28;20487;-89
2022/08/09 13:07:15;;;;;;;1.40;0.80;;;33.40;54.30;;;;;;4967953;28;20862;-93
2022/08/09 13:10:05;;;;;;;1.40;0.80;;;33.60;56.00;;;;;;4980624;28;20205;-90
2022/08/09 13:12:59;;;;;;;1.40;0.80;;;33.70;54.70;;;;;;4981453;28;20237;-89
2022/08/09 13:15:34;;;;;;;1.40;0.80;;;33.50;53.80;;;;;;4982109;28;20226;-90
2022/08/09 13:18:03;;;;;;;1.40;0.80;;;33.40;55.70;;;;;;4992115;23;20239;-80
2022/08/09 13:23:48;;;;;;;1.40;0.80;;;33.60;55.90;;;;;;4946151;28;20218;-83
2022/08/09 13:26:35;;;;;;;1.50;1.20;;;33.80;53.80;;;;;;4950498;28;20249;-81
2022/08/09 13:29:09;;;;;;;1.40;0.80;;;33.70;54.60;;;;;;4960826;28;20663;-82
2022/08/09 13:31:56;;;;;;;1.40;0.90;;;33.60;54.80;;;;;;4954930;28;20257;-80
2022/08/09 13:34:58;;;;;;;1.50;1.10;;;33.40;55.20;;;;;;4969747;28;20579;-82
2022/08/09 13:37:29;;;;;;;1.40;0.80;;;33.50;54.20;;;;;;4966955;28;20244;-83
2022/08/09 13:39:57;;;;;;;1.40;0.80;;;33.60;53.90;;;;;;4962127;28;20673;-81
2022/08/09 13:42:26;;;;;;;1.60;1.30;;;33.60;54.30;;;;;;4958159;28;20233;-81
2022/08/09 13:44:54;;;;;;;1.50;1.17;;;33.60;54.80;;;;;;4961319;28;20222;-82
2022/08/09 13:47:22;;;;;;;1.40;0.80;;;33.50;54.40;;;;;;4960994;28;20500;-82
2022/08/09 13:49:50;;;;;;;1.40;0.80;;;33.50;54.30;;;;;;4961210;28;20215;-82
2022/08/09 13:52:19;;;;;;;1.40;0.80;;;33.50;54.20;;;;;;4956369;28;20261;-81
2022/08/09 13:54:47;;;;;;;1.40;0.80;;;33.50;54.20;;;;;;4954434;28;20440;-80
2022/08/09 13:57:18;;;;;;;1.40;0.80;;;33.40;53.70;;;;;;4964333;28;20312;-82
2022/08/09 13:59:47;;;;;;;1.40;0.80;;;33.10;54.80;;;;;;4962967;28;20221;-82
2022/08/09 14:02:17;;;;;;;1.40;0.80;;;33.20;53.80;;;;;;4959335;28;20257;-82
2022/08/09 14:04:45;;;;;;;1.40;0.80;;;33.40;53.50;;;;;;4962163;28;20811;-83
2022/08/09 14:07:13;;;;;;;1.40;0.83;;;33.40;53.30;;;;;;4959754;28;20320;-82
2022/08/09 14:09:50;;;;;;;1.40;0.80;;;33.40;53.60;;;;;;4964678;28;20207;-84
2022/08/09 14:12:23;;;;;;;1.40;0.80;;;33.50;53.20;;;;;;4958942;28;20691;-83
2022/08/09 14:14:55;;;;;;;1.40;0.80;;;33.40;53.90;;;;;;4958449;29;20214;-82
2022/08/09 14:17:29;;;;;;;1.40;0.80;;;33.40;52.70;;;;;;4964844;28;20297;-83
2022/08/09 14:19:57;;;;;;;1.40;0.80;;;33.50;53.90;;;;;;4962454;28;20660;-82
2022/08/09 14:22:45;;;;;;;2.20;1.00;;;33.60;52.80;;;;;;4966608;28;20273;-83
2022/08/09 14:25:13;;;;;;;1.40;0.80;;;33.70;53.40;;;;;;4959506;28;20238;-83
2022/08/09 14:27:45;;;;;;;1.40;0.80;;;33.50;53.10;;;;;;4965695;28;20293;-82
2022/08/09 14:30:15;;;;;;;1.40;0.80;;;33.50;53.30;;;;;;4951720;29;20238;-82
2022/08/09 14:32:45;;;;;;;1.40;0.80;;;33.40;53.40;;;;;;4962364;28;20221;-82
2022/08/09 14:35:16;;;;;;;1.40;0.80;;;33.30;53.40;;;;;;4959709;28;20639;-82
2022/08/09 14:37:44;;;;;;;1.40;0.80;;;33.30;55.00;;;;;;4965931;28;20284;-83
2022/08/09 14:40:13;;;;;;;1.40;1.00;;;33.50;52.90;;;;;;4959595;28;20207;-82
2022/08/09 14:42:41;;;;;;;1.40;0.80;;;33.10;53.70;;;;;;4962650;28;20241;-83
2022/08/09 14:45:11;;;;;;;1.50;0.90;;;33.10;54.10;;;;;;4958957;28;20203;-81
2022/08/09 14:47:44;;;;;;;1.40;0.90;;;33.20;54.90;;;;;;4961001;28;20364;-81
2022/08/09 14:50:18;;;;;;;1.40;0.87;;;33.10;53.70;;;;;;4954356;29;20215;-82
2022/08/09 14:52:51;;;;;;;1.40;0.80;;;32.90;53.30;;;;;;4965032;28;20524;-81
2022/08/09 14:55:19;;;;;;;1.40;0.80;;;32.70;54.20;;;;;;4959415;28;20270;-82
2022/08/09 14:57:48;;;;;;;1.40;0.80;;;32.70;54.20;;;;;;4969394;28;20752;-82
2022/08/09 15:00:16;;;;;;;1.40;0.80;;;32.80;55.20;;;;;;4948109;29;20203;-82
2022/08/09 15:02:46;;;;;;;1.40;0.80;;;32.80;54.70;;;;;;4966775;28;20513;-81
2022/08/09 15:05:14;;;;;;;1.40;0.80;;;32.70;53.80;;;;;;4958584;28;20241;-81
2022/08/09 15:07:45;;;;;;;1.40;0.80;;;32.60;55.00;;;;;;4968399;28;20234;-82
2022/08/09 15:10:15;;;;;;;1.40;0.80;;;32.60;54.30;;;;;;4956168;28;20465;-81
2022/08/09 15:12:46;;;;;;;1.40;0.90;;;32.40;54.60;;;;;;4956209;28;20238;-82
2022/08/09 15:15:14;;;;;;;1.40;0.80;;;32.40;54.50;;;;;;4956871;28;20462;-82
2022/08/09 15:17:50;;;;;;;1.40;0.80;;;32.20;54.50;;;;;;4962070;28;20238;-83
2022/08/09 15:20:19;;;;;;;1.40;0.80;;;32.20;55.10;;;;;;4957198;28;20516;-82
2022/08/09 15:22:50;;;;;;;1.40;0.80;;;32.30;54.80;;;;;;4959933;28;20318;-81
2022/08/09 15:25:26;;;;;;;1.60;1.17;;;32.40;54.10;;;;;;4956358;28;20474;-83
2022/08/09 15:27:53;;;;;;;1.40;0.80;;;32.50;55.20;;;;;;4958565;28;20237;-82
2022/08/09 15:30:21;;;;;;;1.40;0.80;;;32.50;54.90;;;;;;4951739;28;20498;-82
2022/08/09 15:32:50;;;;;;;1.40;0.80;;;32.40;54.70;;;;;;4954410;28;20830;-82
2022/08/09 15:35:21;;;;;;;1.40;0.80;;;32.30;55.20;;;;;;4950437;28;20888;-82
2022/08/09 15:37:52;;;;;;;1.40;0.80;;;32.20;55.10;;;;;;4958608;28;20329;-80
2022/08/09 15:40:21;;;;;;;1.40;0.80;;;32.20;55.50;;;;;;4955032;28;20217;-81
2022/08/09 15:42:51;;;;;;;1.43;0.80;;;32.30;54.50;;;;;;4959550;28;20504;-80
2022/08/09 15:45:20;;;;;;;1.40;0.80;;;32.30;55.00;;;;;;4954291;28;20470;-81
2022/08/09 15:48:03;;;;;;;1.40;0.80;;;32.30;56.00;;;;;;4958402;28;20485;-83
2022/08/09 15:50:31;;;;;;;1.50;1.10;;;32.20;54.20;;;;;;4954226;29;20533;-81
2022/08/09 15:53:01;;;;;;;1.50;1.00;;;32.00;55.10;;;;;;4956425;28;20613;-83